createdAt,value
2019-02-27T00:00:44.821Z,78.47
2019-02-27T00:01:30.521Z,75.15
2019-02-27T00:02:08.061Z,72.87
2019-02-27T00:02:45.895Z,76.37
2019-02-27T00:03:24.028Z,72.30
2019-02-27T00:04:02.375Z,78.52
2019-02-27T00:04:40.850Z,75.15
2019-02-27T00:05:18.472Z,76.70
2019-02-27T00:05:56.544Z,75.97
2019-02-27T00:06:34.684Z,73.83
2019-02-27T00:07:12.755Z,75.45
2019-02-27T00:07:53.937Z,73.55
2019-02-27T00:08:30.242Z,75.57
2019-02-27T00:09:10.772Z,77.15
2019-02-27T00:09:48.910Z,80.10
2019-02-27T00:10:26.611Z,74.82
2019-02-27T00:11:04.617Z,76.57
2019-02-27T00:11:45.999Z,76.35
2019-02-27T00:12:21.096Z,76.02
2019-02-27T00:12:58.738Z,74.35
2019-02-27T00:13:36.500Z,76.80
2019-02-27T00:14:14.330Z,76.92
2019-02-27T00:14:52.180Z,78.07
2019-02-27T00:15:29.986Z,77.70
2019-02-27T00:16:10.869Z,80.95
2019-02-27T00:16:46.681Z,81.50
2019-02-27T00:17:24.102Z,79.62
2019-02-27T00:18:01.134Z,77.40
2019-02-27T00:18:38.816Z,78.20
2019-02-27T00:19:16.622Z,79.72
2019-02-27T00:19:54.486Z,81.12
2019-02-27T00:20:31.940Z,79.80
2019-02-27T00:21:10.962Z,83.52
2019-02-27T00:21:49.102Z,77.72
2019-02-27T00:22:26.542Z,79.30
2019-02-27T00:23:04.014Z,75.57
2019-02-27T00:23:41.177Z,80.38
2019-02-27T00:24:19.195Z,79.67
2019-02-27T00:24:57.157Z,80.95
2019-02-27T00:25:36.087Z,78.37
2019-02-27T00:26:14.410Z,74.00
2019-02-27T00:26:52.340Z,77.95
2019-02-27T00:27:30.518Z,79.00
2019-02-27T00:28:08.291Z,77.60
2019-02-27T00:28:46.024Z,78.02
2019-02-27T00:29:24.065Z,78.75
2019-02-27T00:30:04.813Z,77.92
2019-02-27T00:30:41.093Z,76.72
2019-02-27T00:31:18.856Z,80.12
2019-02-27T00:31:56.841Z,76.37
2019-02-27T00:32:35.052Z,82.60
2019-02-27T00:33:12.852Z,79.07
2019-02-27T00:33:50.488Z,80.77
2019-02-27T00:34:28.192Z,80.05
2019-02-27T00:35:07.277Z,78.60
2019-02-27T00:35:45.307Z,78.25
2019-02-27T00:36:23.088Z,79.58
2019-02-27T00:37:00.870Z,83.67
2019-02-27T00:37:38.620Z,79.90
2019-02-27T00:38:16.159Z,79.55
2019-02-27T00:38:53.204Z,81.67
2019-02-27T00:39:31.787Z,83.30
2019-02-27T00:40:09.396Z,82.12
2019-02-27T00:40:47.604Z,80.80
2019-02-27T00:41:24.654Z,84.13
2019-02-27T00:42:02.101Z,86.20
2019-02-27T00:42:39.503Z,80.35
2019-02-27T00:43:16.545Z,80.55
2019-02-27T00:43:54.213Z,78.95
2019-02-27T00:44:33.970Z,82.42
2019-02-27T00:45:11.764Z,78.17
2019-02-27T00:45:49.396Z,79.22
2019-02-27T00:46:27.176Z,77.40
2019-02-27T00:47:04.579Z,81.97
2019-02-27T00:47:42.008Z,82.27
2019-02-27T00:48:19.857Z,81.92
2019-02-27T00:48:59.094Z,83.62
2019-02-27T00:49:36.296Z,83.62
2019-02-27T00:50:13.842Z,81.70
2019-02-27T00:50:51.554Z,81.90
2019-02-27T00:51:28.992Z,83.67
2019-02-27T00:52:06.367Z,79.42
2019-02-27T00:52:44.052Z,81.80
2019-02-27T00:53:24.517Z,80.50
2019-02-27T00:54:01.216Z,82.45
2019-02-27T00:54:39.373Z,79.12
2019-02-27T00:55:17.138Z,83.78
2019-02-27T00:55:54.739Z,82.60
2019-02-27T00:56:32.506Z,88.90
2019-02-27T00:57:09.988Z,82.62
2019-02-27T00:57:46.955Z,81.65
2019-02-27T00:58:27.070Z,82.85
2019-02-27T00:59:04.166Z,85.65
2019-02-27T00:59:41.929Z,85.22
2019-02-27T01:00:20.036Z,82.62
2019-02-27T01:00:57.822Z,82.82
2019-02-27T01:01:34.915Z,82.70
2019-02-27T01:02:12.599Z,83.03
2019-02-27T01:02:52.643Z,83.52
2019-02-27T01:03:30.145Z,79.17
2019-02-27T01:04:07.696Z,78.75
2019-02-27T01:04:45.156Z,84.10
2019-02-27T01:05:22.873Z,79.42
2019-02-27T01:06:00.100Z,79.95
2019-02-27T01:06:37.284Z,84.35
2019-02-27T01:07:20.202Z,83.50
2019-02-27T01:07:55.922Z,83.78
2019-02-27T01:08:34.102Z,82.33
2019-02-27T01:09:12.289Z,84.50
2019-02-27T01:09:50.952Z,79.65
2019-02-27T01:10:28.964Z,79.72
2019-02-27T01:11:08.231Z,79.95
2019-02-27T01:11:45.822Z,80.42
2019-02-27T01:12:25.072Z,81.45
2019-02-27T01:13:02.412Z,80.10
2019-02-27T01:13:40.248Z,80.60
2019-02-27T01:14:18.039Z,82.57
2019-02-27T01:14:55.390Z,83.80
2019-02-27T01:15:33.425Z,79.05
2019-02-27T01:16:11.350Z,78.78
2019-02-27T01:16:50.264Z,80.70
2019-02-27T01:17:28.252Z,78.78
2019-02-27T01:18:05.466Z,80.03
2019-02-27T01:18:43.314Z,80.07
2019-02-27T01:19:21.244Z,82.22
2019-02-27T01:19:58.718Z,82.92
2019-02-27T01:20:36.812Z,81.72
2019-02-27T01:21:19.229Z,82.15
2019-02-27T01:21:54.586Z,83.97
2019-02-27T01:22:32.524Z,82.75
2019-02-27T01:23:11.160Z,80.25
2019-02-27T01:23:48.764Z,81.67
2019-02-27T01:24:26.436Z,82.17
2019-02-27T01:25:04.385Z,81.47
2019-02-27T01:25:42.231Z,81.17
2019-02-27T01:26:19.300Z,83.27
2019-02-27T01:26:57.449Z,79.97
2019-02-27T01:27:37.947Z,78.45
2019-02-27T01:28:14.056Z,81.80
2019-02-27T01:28:51.750Z,82.30
2019-02-27T01:29:29.588Z,82.45
2019-02-27T01:30:07.594Z,82.02
2019-02-27T01:30:44.976Z,81.45
2019-02-27T01:31:24.060Z,78.72
2019-02-27T01:32:02.191Z,79.00
2019-02-27T01:32:39.908Z,81.12
2019-02-27T01:33:18.044Z,81.45
2019-02-27T01:33:55.088Z,82.95
2019-02-27T01:34:32.561Z,80.90
2019-02-27T01:35:10.634Z,79.75
2019-02-27T01:35:51.259Z,78.25
2019-02-27T01:36:27.864Z,77.90
2019-02-27T01:37:05.764Z,75.92
2019-02-27T01:37:43.918Z,80.80
2019-02-27T01:38:21.128Z,78.28
2019-02-27T01:38:59.222Z,79.37
2019-02-27T01:39:36.668Z,80.87
2019-02-27T01:40:17.200Z,78.92
2019-02-27T01:40:54.130Z,79.87
2019-02-27T01:41:31.358Z,80.65
2019-02-27T01:42:09.090Z,79.58
2019-02-27T01:42:46.929Z,79.60
2019-02-27T01:43:24.535Z,78.78
2019-02-27T01:44:02.223Z,76.72
2019-02-27T01:44:41.129Z,76.12
2019-02-27T01:45:21.017Z,78.42
2019-02-27T01:45:57.826Z,79.75
2019-02-27T01:46:36.256Z,76.47
2019-02-27T01:47:14.298Z,76.30
2019-02-27T01:47:52.010Z,77.10
2019-02-27T01:48:29.487Z,76.30
2019-02-27T01:49:07.381Z,78.22
2019-02-27T01:49:48.925Z,75.70
2019-02-27T01:50:36.180Z,73.92
2019-02-27T01:51:13.734Z,77.95
2019-02-27T01:51:53.974Z,75.97
2019-02-27T01:52:34.104Z,75.22
2019-02-27T01:53:11.737Z,74.80
2019-02-27T01:53:49.185Z,75.95
2019-02-27T01:54:26.656Z,77.72
2019-02-27T01:55:04.386Z,79.65
2019-02-27T01:55:41.620Z,77.82
2019-02-27T01:56:18.624Z,78.67
2019-02-27T01:56:56.294Z,78.35
2019-02-27T01:57:36.715Z,75.78
2019-02-27T01:58:13.176Z,77.67
2019-02-27T01:58:50.388Z,74.80
2019-02-27T01:59:28.225Z,77.80
2019-02-27T02:00:06.452Z,73.92
2019-02-27T02:00:43.824Z,77.42
2019-02-27T02:01:21.378Z,77.03
2019-02-27T02:02:01.066Z,74.62
2019-02-27T02:02:40.524Z,77.67
2019-02-27T02:03:18.502Z,80.62
2019-02-27T02:03:56.060Z,74.87
2019-02-27T02:04:33.585Z,75.52
2019-02-27T02:05:11.681Z,76.72
2019-02-27T02:05:48.806Z,80.05
2019-02-27T02:06:26.340Z,76.12
2019-02-27T02:07:06.578Z,76.00
2019-02-27T02:07:46.228Z,77.97
2019-02-27T02:08:23.730Z,77.55
2019-02-27T02:09:31.168Z,75.83
2019-02-27T02:10:08.789Z,71.10
2019-02-27T02:10:46.577Z,74.30
2019-02-27T02:11:24.426Z,75.03
2019-02-27T02:12:03.254Z,77.42
2019-02-27T02:12:41.638Z,77.40
2019-02-27T02:13:30.786Z,75.72
2019-02-27T02:14:45.681Z,78.83
2019-02-27T02:15:53.602Z,71.70
2019-02-27T02:17:09.968Z,71.95
2019-02-27T02:18:19.000Z,73.20
2019-02-27T02:19:33.430Z,71.20
2019-02-27T02:20:40.156Z,71.37
2019-02-27T02:21:42.455Z,70.97
2019-02-27T02:23:13.960Z,72.30
2019-02-27T02:24:26.048Z,71.12
2019-02-27T02:25:50.928Z,66.57
2019-02-27T02:26:40.704Z,71.15
2019-02-27T02:27:52.105Z,69.10
2019-02-27T02:29:22.599Z,70.05
2019-02-27T02:31:04.946Z,68.70
2019-02-27T02:31:43.821Z,67.30
2019-02-27T02:32:37.519Z,68.42
2019-02-27T02:33:28.670Z,69.37
2019-02-27T02:34:46.286Z,70.80
2019-02-27T02:35:35.541Z,67.17
2019-02-27T02:36:38.925Z,71.87
2019-02-27T02:37:51.435Z,73.87
2019-02-27T02:38:53.129Z,73.33
2019-02-27T02:40:05.778Z,69.65
2019-02-27T02:41:25.859Z,67.80
2019-02-27T02:42:30.773Z,66.55
2019-02-27T02:43:33.037Z,70.47
2019-02-27T02:44:57.726Z,72.22
2019-02-27T02:45:45.646Z,68.55
2019-02-27T02:46:37.184Z,69.42
2019-02-27T02:47:46.887Z,70.35
2019-02-27T02:48:45.202Z,65.25
2019-02-27T02:49:47.159Z,69.05
2019-02-27T02:50:57.266Z,69.90
2019-02-27T02:52:04.366Z,66.28
2019-02-27T02:53:11.394Z,66.25
2019-02-27T02:54:15.298Z,70.22
2019-02-27T02:55:50.633Z,70.03
2019-02-27T02:56:44.666Z,66.95
2019-02-27T02:58:01.699Z,70.32
2019-02-27T02:59:24.267Z,66.33
2019-02-27T03:00:26.832Z,68.75
2019-02-27T03:01:18.616Z,68.90
2019-02-27T03:02:39.006Z,71.28
2019-02-27T03:03:41.462Z,69.85
2019-02-27T03:04:48.470Z,69.58
2019-02-27T03:05:49.824Z,73.52
2019-02-27T03:06:54.931Z,72.82
2019-02-27T03:07:57.552Z,74.85
2019-02-27T03:08:57.681Z,70.87
2019-02-27T03:10:18.119Z,70.87
2019-02-27T03:11:19.038Z,71.35
2019-02-27T03:12:39.988Z,72.00
2019-02-27T03:13:41.515Z,70.92
2019-02-27T03:14:39.026Z,76.50
2019-02-27T03:15:43.490Z,73.20
2019-02-27T03:16:50.866Z,74.80
2019-02-27T03:18:05.732Z,71.85
2019-02-27T03:19:05.042Z,73.07
2019-02-27T03:20:20.713Z,69.17
2019-02-27T03:21:06.201Z,74.92
2019-02-27T03:22:11.699Z,77.25
2019-02-27T03:23:22.486Z,74.85
2019-02-27T03:24:34.277Z,68.45
2019-02-27T03:25:41.918Z,75.28
2019-02-27T03:26:38.159Z,71.42
2019-02-27T03:27:30.859Z,70.52
2019-02-27T03:28:40.985Z,73.17
2019-02-27T03:29:34.565Z,72.08
2019-02-27T03:31:02.358Z,73.20
2019-02-27T03:32:04.200Z,70.70
2019-02-27T03:32:53.146Z,69.90
2019-02-27T03:34:05.802Z,72.58
2019-02-27T03:35:29.241Z,73.17
2019-02-27T03:37:02.285Z,68.15
2019-02-27T03:38:04.727Z,71.75
2019-02-27T03:39:06.756Z,70.30
2019-02-27T03:40:13.056Z,72.67
2019-02-27T03:41:32.827Z,72.60
2019-02-27T03:42:57.308Z,73.72
2019-02-27T03:44:02.130Z,72.25
2019-02-27T03:44:45.674Z,72.58
2019-02-27T03:46:06.210Z,75.65
2019-02-27T03:46:55.515Z,72.75
2019-02-27T03:48:27.534Z,73.20
2019-02-27T03:49:49.980Z,71.85
2019-02-27T03:50:58.836Z,68.78
2019-02-27T03:52:12.938Z,71.97
2019-02-27T03:53:12.181Z,73.12
2019-02-27T03:54:21.334Z,79.07
2019-02-27T03:55:32.890Z,73.47
2019-02-27T03:56:35.908Z,73.65
2019-02-27T03:57:33.653Z,68.35
2019-02-27T03:58:39.089Z,74.80
2019-02-27T04:00:19.164Z,71.07
2019-02-27T04:01:30.078Z,67.35
2019-02-27T04:02:26.732Z,69.32
2019-02-27T04:03:18.255Z,71.97
2019-02-27T04:04:08.540Z,71.37
2019-02-27T04:05:11.283Z,76.67
2019-02-27T04:06:21.378Z,70.78
2019-02-27T04:07:31.508Z,71.77
2019-02-27T04:08:44.873Z,71.10
2019-02-27T04:09:20.455Z,71.55
2019-02-27T04:09:58.696Z,73.45
2019-02-27T04:10:36.521Z,72.58
2019-02-27T04:11:14.609Z,74.30
2019-02-27T04:11:52.034Z,79.67
2019-02-27T04:12:29.977Z,77.47
2019-02-27T04:13:07.443Z,76.10
2019-02-27T04:13:45.056Z,81.55
2019-02-27T04:14:40.432Z,76.20
2019-02-27T04:15:17.756Z,76.37
2019-02-27T04:15:53.668Z,76.75
2019-02-27T04:16:32.202Z,75.87
2019-02-27T04:17:09.674Z,76.00
2019-02-27T04:17:51.781Z,80.40
2019-02-27T04:18:27.501Z,76.10
2019-02-27T04:19:04.387Z,78.22
2019-02-27T04:19:43.009Z,72.92
2019-02-27T04:20:20.757Z,74.32
2019-02-27T04:20:58.633Z,72.25
2019-02-27T04:21:36.511Z,77.90
2019-02-27T04:22:14.543Z,76.12
2019-02-27T04:22:52.271Z,80.15
2019-02-27T04:23:30.038Z,72.85
2019-02-27T04:24:07.826Z,76.75
2019-02-27T04:24:45.406Z,70.28
2019-02-27T04:25:23.127Z,73.00
2019-02-27T04:26:05.270Z,74.45
2019-02-27T04:26:41.865Z,77.35
2019-02-27T04:27:21.282Z,75.52
2019-02-27T04:27:58.962Z,73.72
2019-02-27T04:28:36.969Z,74.45
2019-02-27T04:29:14.912Z,75.17
2019-02-27T04:29:52.965Z,76.37
2019-02-27T04:30:30.629Z,74.80
2019-02-27T04:31:08.031Z,73.80
2019-02-27T04:31:46.094Z,76.22
2019-02-27T04:32:23.657Z,73.33
2019-02-27T04:33:01.418Z,77.05
2019-02-27T04:33:38.909Z,77.20
2019-02-27T04:34:16.940Z,69.85
2019-02-27T04:34:54.381Z,74.05
2019-02-27T04:35:31.779Z,75.22
2019-02-27T04:36:12.483Z,76.67
2019-02-27T04:36:48.367Z,73.20
2019-02-27T04:37:26.071Z,76.00
2019-02-27T04:38:03.981Z,73.95
2019-02-27T04:38:41.765Z,72.90
2019-02-27T04:39:18.609Z,71.85
2019-02-27T04:39:56.359Z,74.35
2019-02-27T04:40:33.741Z,72.97
2019-02-27T04:41:11.681Z,73.15
2019-02-27T04:41:51.979Z,75.08
2019-02-27T04:42:28.789Z,70.65
2019-02-27T04:43:06.497Z,70.95
2019-02-27T04:43:43.762Z,74.10
2019-02-27T04:44:23.032Z,75.22
2019-02-27T04:45:01.025Z,71.92
2019-02-27T04:45:38.077Z,74.55
2019-02-27T04:46:15.870Z,74.67
2019-02-27T04:46:55.092Z,70.72
2019-02-27T04:47:33.068Z,76.37
2019-02-27T04:48:10.956Z,74.37
2019-02-27T04:48:48.395Z,74.87
2019-02-27T04:49:26.041Z,73.05
2019-02-27T04:50:03.497Z,73.60
2019-02-27T04:50:41.726Z,72.95
2019-02-27T04:51:20.700Z,75.12
2019-02-27T04:51:58.823Z,76.45
2019-02-27T04:52:36.816Z,67.75
2019-02-27T04:53:14.490Z,70.05
2019-02-27T04:53:52.211Z,73.67
2019-02-27T04:54:29.739Z,69.42
2019-02-27T04:55:07.064Z,69.30
2019-02-27T04:55:45.247Z,66.25
2019-02-27T04:56:23.292Z,69.58
2019-02-27T04:57:01.003Z,69.58
2019-02-27T04:57:39.003Z,71.72
2019-02-27T04:58:16.467Z,71.60
2019-02-27T04:58:53.557Z,73.30
2019-02-27T04:59:31.573Z,73.40
2019-02-27T05:00:10.170Z,69.97
2019-02-27T05:00:48.279Z,68.30
2019-02-27T05:01:26.346Z,70.05
2019-02-27T05:02:04.536Z,69.03
2019-02-27T05:02:42.167Z,69.40
2019-02-27T05:03:20.044Z,70.90
2019-02-27T05:04:01.091Z,69.70
2019-02-27T05:04:37.229Z,67.95
2019-02-27T05:05:15.173Z,70.20
2019-02-27T05:05:53.088Z,69.58
2019-02-27T05:06:31.212Z,72.53
2019-02-27T05:07:07.921Z,69.27
2019-02-27T05:07:45.501Z,72.67
2019-02-27T05:08:26.846Z,74.53
2019-02-27T05:09:03.045Z,70.30
2019-02-27T05:09:40.119Z,73.57
2019-02-27T05:10:17.617Z,73.17
2019-02-27T05:10:55.577Z,68.07
2019-02-27T05:11:33.323Z,72.67
2019-02-27T05:12:10.908Z,70.45
2019-02-27T05:12:48.987Z,71.45
2019-02-27T05:13:26.501Z,69.60
2019-02-27T05:14:03.873Z,70.80
2019-02-27T05:14:41.418Z,70.22
2019-02-27T05:15:19.578Z,71.28
2019-02-27T05:15:57.682Z,71.22
2019-02-27T05:16:35.233Z,70.78
2019-02-27T05:17:12.971Z,70.55
2019-02-27T05:17:53.043Z,70.67
2019-02-27T05:18:30.284Z,72.58
2019-02-27T05:19:07.869Z,67.55
2019-02-27T05:19:44.919Z,68.07
2019-02-27T05:20:23.017Z,70.35
2019-02-27T05:21:00.789Z,70.40
2019-02-27T05:21:38.575Z,68.37
2019-02-27T05:22:16.465Z,68.42
2019-02-27T05:22:54.249Z,68.37
2019-02-27T05:23:33.535Z,68.92
2019-02-27T05:24:11.599Z,68.17
2019-02-27T05:24:49.656Z,67.60
2019-02-27T05:25:27.251Z,67.08
2019-02-27T05:26:05.042Z,66.90
2019-02-27T05:26:42.967Z,66.35
2019-02-27T05:27:20.409Z,65.47
2019-02-27T05:28:01.003Z,67.40
2019-02-27T05:28:37.670Z,65.37
2019-02-27T05:29:15.887Z,66.65
2019-02-27T05:29:53.785Z,66.02
2019-02-27T05:30:31.488Z,66.30
2019-02-27T05:31:08.666Z,64.75
2019-02-27T05:31:46.686Z,65.22
2019-02-27T05:32:25.272Z,68.02
2019-02-27T05:33:03.605Z,65.35
2019-02-27T05:33:41.162Z,68.33
2019-02-27T05:34:18.650Z,64.95
2019-02-27T05:34:56.081Z,64.62
2019-02-27T05:35:34.185Z,67.32
2019-02-27T05:36:12.177Z,67.20
2019-02-27T05:36:49.957Z,64.55
2019-02-27T05:37:27.419Z,67.00
2019-02-27T05:38:04.965Z,66.12
2019-02-27T05:39:01.779Z,67.90
2019-02-27T05:39:39.525Z,63.35
2019-02-27T05:40:17.058Z,63.90
2019-02-27T05:40:54.645Z,67.95
2019-02-27T05:41:33.270Z,68.05
2019-02-27T05:42:13.094Z,64.12
2019-02-27T05:42:50.289Z,65.72
2019-02-27T05:43:28.278Z,66.85
2019-02-27T05:44:06.238Z,66.50
2019-02-27T05:44:43.971Z,63.10
2019-02-27T05:45:21.759Z,65.75
2019-02-27T05:46:02.743Z,67.55
2019-02-27T05:46:39.129Z,65.08
2019-02-27T05:47:17.063Z,64.82
2019-02-27T05:47:54.585Z,67.45
2019-02-27T05:48:32.529Z,66.00
2019-02-27T05:49:10.261Z,64.05
2019-02-27T05:49:48.009Z,65.55
2019-02-27T05:50:27.561Z,66.28
2019-02-27T05:51:07.507Z,66.80
2019-02-27T05:51:45.213Z,66.00
2019-02-27T05:52:23.302Z,64.67
2019-02-27T05:53:01.005Z,67.12
2019-02-27T05:53:38.451Z,64.65
2019-02-27T05:54:16.582Z,64.40
2019-02-27T05:54:54.385Z,64.53
2019-02-27T05:55:32.525Z,66.25
2019-02-27T05:56:15.526Z,63.73
2019-02-27T05:56:50.357Z,65.17
2019-02-27T05:57:27.814Z,63.78
2019-02-27T05:58:05.477Z,64.00
2019-02-27T05:58:43.678Z,62.85
2019-02-27T05:59:23.854Z,61.00
2019-02-27T06:00:02.770Z,63.87
2019-02-27T06:00:40.541Z,62.48
2019-02-27T06:01:17.723Z,63.95
2019-02-27T06:01:56.049Z,63.80
2019-02-27T06:02:33.597Z,63.23
2019-02-27T06:03:11.316Z,60.15
2019-02-27T06:03:49.406Z,63.40
2019-02-27T06:04:31.977Z,62.75
2019-02-27T06:05:09.653Z,61.88
2019-02-27T06:05:49.724Z,62.53
2019-02-27T06:06:25.987Z,64.00
2019-02-27T06:07:03.800Z,62.48
2019-02-27T06:07:41.703Z,60.40
2019-02-27T06:08:19.750Z,62.05
2019-02-27T06:08:57.809Z,64.30
2019-02-27T06:09:34.981Z,66.47
2019-02-27T06:10:14.622Z,61.77
2019-02-27T06:10:56.031Z,60.38
2019-02-27T06:11:36.730Z,57.83
2019-02-27T06:12:14.344Z,59.80
2019-02-27T06:12:52.011Z,59.60
2019-02-27T06:13:29.425Z,63.52
2019-02-27T06:14:07.464Z,61.70
2019-02-27T06:14:45.285Z,61.83
2019-02-27T06:15:23.313Z,63.00
2019-02-27T06:16:03.995Z,62.85
2019-02-27T06:16:40.903Z,58.98
2019-02-27T06:17:18.710Z,59.77
2019-02-27T06:17:56.624Z,62.08
2019-02-27T06:18:34.469Z,61.53
2019-02-27T06:19:12.012Z,57.88
2019-02-27T06:19:50.213Z,60.08
2019-02-27T06:20:28.153Z,57.27
2019-02-27T06:21:05.671Z,62.40
2019-02-27T06:21:43.702Z,61.10
2019-02-27T06:22:21.339Z,60.38
2019-02-27T06:22:58.919Z,60.78
2019-02-27T06:23:37.881Z,61.68
2019-02-27T06:24:16.229Z,61.25
2019-02-27T06:24:53.721Z,59.42
2019-02-27T06:25:32.692Z,56.65
2019-02-27T06:26:10.495Z,58.42
2019-02-27T06:26:48.617Z,60.28
2019-02-27T06:27:26.383Z,56.50
2019-02-27T06:28:04.234Z,55.63
2019-02-27T06:28:41.982Z,58.70
2019-02-27T06:29:23.287Z,58.70
2019-02-27T06:29:59.764Z,57.10
2019-02-27T06:30:37.611Z,56.42
2019-02-27T06:31:15.651Z,55.50
2019-02-27T06:31:52.409Z,58.02
2019-02-27T06:32:30.195Z,59.13
2019-02-27T06:33:11.649Z,58.83
2019-02-27T06:33:47.022Z,56.95
2019-02-27T06:34:24.842Z,54.20
2019-02-27T06:35:03.575Z,55.40
2019-02-27T06:35:41.707Z,55.48
2019-02-27T06:36:19.319Z,56.30
2019-02-27T06:36:56.877Z,54.05
2019-02-27T06:37:34.765Z,55.10
2019-02-27T06:38:12.543Z,57.62
2019-02-27T06:38:50.769Z,51.68
2019-02-27T06:39:28.315Z,54.85
2019-02-27T06:40:07.511Z,53.92
2019-02-27T06:40:45.707Z,54.67
2019-02-27T06:41:23.277Z,54.10
2019-02-27T06:42:02.579Z,52.08
2019-02-27T06:42:40.272Z,54.40
2019-02-27T06:43:18.549Z,54.10
2019-02-27T06:43:58.962Z,53.30
2019-02-27T06:44:36.631Z,53.50
2019-02-27T06:45:16.517Z,53.78
2019-02-27T06:45:54.572Z,53.38
2019-02-27T06:46:32.310Z,51.20
2019-02-27T06:47:10.181Z,54.50
2019-02-27T06:47:51.003Z,52.83
2019-02-27T06:48:28.941Z,52.38
2019-02-27T06:49:06.173Z,52.20
2019-02-27T06:49:44.055Z,52.30
2019-02-27T06:50:25.262Z,52.65
2019-02-27T06:51:01.637Z,52.80
2019-02-27T06:51:39.253Z,51.65
2019-02-27T06:52:17.094Z,52.15
2019-02-27T06:52:54.475Z,52.90
2019-02-27T06:53:37.843Z,53.70
2019-02-27T06:54:18.115Z,51.33
2019-02-27T06:54:54.899Z,54.75
2019-02-27T06:55:33.867Z,49.90
2019-02-27T06:56:12.143Z,52.88
2019-02-27T06:56:50.431Z,52.50
2019-02-27T06:57:28.162Z,49.63
2019-02-27T06:58:08.367Z,50.43
2019-02-27T06:58:47.566Z,50.23
2019-02-27T06:59:25.785Z,50.40
2019-02-27T07:00:03.298Z,52.38
2019-02-27T07:00:41.518Z,50.17
2019-02-27T07:01:19.405Z,50.75
2019-02-27T07:01:57.473Z,51.35
2019-02-27T07:02:35.282Z,49.67
2019-02-27T07:03:16.034Z,49.83
2019-02-27T07:03:53.805Z,47.67
2019-02-27T07:04:31.536Z,51.23
2019-02-27T07:05:13.287Z,50.60
2019-02-27T07:05:51.857Z,50.65
2019-02-27T07:06:29.347Z,49.90
2019-02-27T07:07:12.922Z,49.95
2019-02-27T07:08:09.192Z,48.85
2019-02-27T07:08:47.417Z,48.15
2019-02-27T07:09:24.943Z,47.38
2019-02-27T07:10:02.428Z,48.95
2019-02-27T07:10:39.927Z,49.58
2019-02-27T07:11:17.821Z,50.10
2019-02-27T07:11:55.671Z,49.30
2019-02-27T07:12:33.910Z,49.88
2019-02-27T07:13:11.287Z,48.08
2019-02-27T07:13:48.322Z,46.05
2019-02-27T07:14:25.787Z,46.92
2019-02-27T07:15:03.542Z,47.88
2019-02-27T07:15:40.990Z,47.23
2019-02-27T07:16:20.524Z,46.92
2019-02-27T07:16:58.135Z,44.95
2019-02-27T07:17:36.203Z,48.55
2019-02-27T07:18:13.685Z,48.20
2019-02-27T07:18:51.022Z,46.50
2019-02-27T07:19:28.501Z,46.55
2019-02-27T07:20:08.715Z,46.98
2019-02-27T07:20:46.034Z,46.18
2019-02-27T07:21:23.586Z,46.60
2019-02-27T07:22:01.742Z,44.60
2019-02-27T07:22:39.068Z,47.73
2019-02-27T07:23:22.641Z,44.42
2019-02-27T07:23:58.488Z,44.73
2019-02-27T07:24:36.023Z,46.42
2019-02-27T07:25:13.697Z,45.98
2019-02-27T07:25:51.714Z,45.60
2019-02-27T07:26:29.217Z,44.90
2019-02-27T07:27:07.049Z,46.05
2019-02-27T07:27:44.621Z,45.65
2019-02-27T07:28:22.759Z,45.35
2019-02-27T07:29:00.832Z,48.60
2019-02-27T07:29:38.919Z,45.38
2019-02-27T07:30:17.357Z,43.30
2019-02-27T07:30:55.445Z,45.28
2019-02-27T07:31:32.917Z,44.42
2019-02-27T07:32:11.012Z,43.63
2019-02-27T07:32:49.114Z,45.55
2019-02-27T07:33:27.286Z,45.65
2019-02-27T07:34:05.252Z,45.40
2019-02-27T07:34:42.664Z,45.33
2019-02-27T07:35:20.100Z,65.08
2019-02-27T07:35:57.605Z,58.78
2019-02-27T07:36:35.969Z,52.13
2019-02-27T07:37:15.064Z,45.45
2019-02-27T07:37:52.481Z,44.48
2019-02-27T07:38:49.044Z,44.75
2019-02-27T07:39:26.482Z,41.50
2019-02-27T07:40:08.037Z,42.80
2019-02-27T07:40:44.136Z,43.68
2019-02-27T07:41:22.214Z,43.68
2019-02-27T07:42:00.078Z,43.68
2019-02-27T07:42:38.193Z,45.03
2019-02-27T07:43:16.222Z,42.25
2019-02-27T07:43:54.483Z,45.15
2019-02-27T07:44:34.736Z,42.03
2019-02-27T07:45:14.536Z,44.48
2019-02-27T07:45:51.526Z,44.25
2019-02-27T07:46:29.332Z,44.80
2019-02-27T07:47:07.086Z,41.28
2019-02-27T07:47:44.275Z,41.63
2019-02-27T07:48:22.078Z,41.05
2019-02-27T07:49:01.473Z,44.48
2019-02-27T07:49:39.038Z,40.73
2019-02-27T07:50:17.188Z,42.43
2019-02-27T07:50:54.924Z,41.83
2019-02-27T07:51:32.672Z,43.70
2019-02-27T07:52:10.476Z,40.73
2019-02-27T07:52:48.324Z,42.27
2019-02-27T07:53:26.415Z,42.23
2019-02-27T07:54:04.019Z,40.10
2019-02-27T07:54:42.146Z,40.85
2019-02-27T07:55:22.909Z,43.00
2019-02-27T07:56:18.236Z,41.73
2019-02-27T07:56:55.674Z,40.40
2019-02-27T07:57:33.379Z,40.52
2019-02-27T07:58:11.404Z,41.10
2019-02-27T07:58:49.141Z,40.50
2019-02-27T07:59:27.136Z,39.58
2019-02-27T08:00:05.632Z,41.53
2019-02-27T08:00:43.052Z,40.00
2019-02-27T08:01:23.482Z,40.65
2019-02-27T08:02:03.077Z,39.80
2019-02-27T08:02:39.544Z,39.92
2019-02-27T08:03:16.970Z,39.00
2019-02-27T08:03:54.901Z,41.02
2019-02-27T08:04:32.788Z,41.83
2019-02-27T08:05:10.776Z,39.35
2019-02-27T08:05:48.488Z,38.40
2019-02-27T08:06:26.526Z,38.92
2019-02-27T08:07:04.550Z,38.23
2019-02-27T08:07:42.386Z,38.28
2019-02-27T08:08:28.520Z,41.40
2019-02-27T08:09:06.736Z,38.20
2019-02-27T08:09:44.296Z,38.30
2019-02-27T08:10:22.134Z,37.25
2019-02-27T08:10:59.610Z,39.45
2019-02-27T08:11:37.912Z,39.80
2019-02-27T08:12:17.506Z,38.63
2019-02-27T08:12:56.487Z,40.00
2019-02-27T08:13:33.700Z,38.10
2019-02-27T08:14:12.905Z,39.03
2019-02-27T08:14:50.132Z,38.42
2019-02-27T08:15:27.537Z,38.83
2019-02-27T08:16:05.127Z,36.35
2019-02-27T08:16:43.136Z,38.02
2019-02-27T08:17:21.132Z,36.48
2019-02-27T08:17:58.808Z,37.45
2019-02-27T08:18:38.042Z,37.08
2019-02-27T08:19:15.910Z,37.00
2019-02-27T08:19:53.649Z,37.75
2019-02-27T08:20:30.918Z,36.08
2019-02-27T08:21:08.987Z,35.60
2019-02-27T08:21:46.878Z,35.15
2019-02-27T08:22:24.944Z,35.90
2019-02-27T08:23:02.892Z,35.80
2019-02-27T08:23:40.945Z,33.73
2019-02-27T08:24:18.404Z,36.08
2019-02-27T08:24:56.168Z,33.92
2019-02-27T08:25:33.958Z,35.95
2019-02-27T08:26:12.224Z,32.98
2019-02-27T08:26:50.397Z,35.88
2019-02-27T08:27:28.080Z,34.98
2019-02-27T08:28:05.820Z,34.45
2019-02-27T08:28:43.674Z,32.23
2019-02-27T08:29:21.488Z,33.98
2019-02-27T08:29:59.847Z,35.40
2019-02-27T08:30:37.694Z,35.10
2019-02-27T08:31:15.743Z,35.05
2019-02-27T08:31:53.779Z,34.05
2019-02-27T08:32:31.980Z,34.05
2019-02-27T08:33:11.078Z,35.55
2019-02-27T08:33:48.199Z,33.63
2019-02-27T08:34:25.268Z,33.60
2019-02-27T08:35:02.794Z,32.88
2019-02-27T08:35:40.616Z,34.58
2019-02-27T08:36:18.358Z,32.38
2019-02-27T08:36:56.392Z,32.80
2019-02-27T08:37:33.752Z,33.67
2019-02-27T08:38:11.536Z,32.35
2019-02-27T08:38:49.298Z,29.42
2019-02-27T08:39:27.005Z,31.25
2019-02-27T08:40:05.248Z,33.70
2019-02-27T08:40:43.208Z,30.70
2019-02-27T08:41:21.211Z,33.18
2019-02-27T08:41:58.277Z,31.25
2019-02-27T08:42:37.364Z,31.80
2019-02-27T08:43:15.036Z,33.05
2019-02-27T08:43:52.574Z,33.80
2019-02-27T08:44:30.302Z,32.63
2019-02-27T08:45:16.662Z,30.77
2019-02-27T08:45:48.377Z,30.70
2019-02-27T08:46:26.480Z,32.75
2019-02-27T08:47:04.336Z,31.97
2019-02-27T08:47:43.499Z,30.48
2019-02-27T08:48:20.887Z,30.65
2019-02-27T08:48:58.462Z,31.12
2019-02-27T08:49:36.512Z,33.48
2019-02-27T08:50:15.684Z,33.60
2019-02-27T08:50:53.128Z,32.25
2019-02-27T08:51:30.955Z,30.85
2019-02-27T08:52:08.678Z,31.82
2019-02-27T08:52:50.563Z,30.88
2019-02-27T08:53:26.785Z,31.57
2019-02-27T08:54:04.645Z,30.97
2019-02-27T08:54:41.830Z,31.15
2019-02-27T08:55:22.314Z,29.40
2019-02-27T08:55:58.382Z,31.70
2019-02-27T08:56:35.401Z,30.10
2019-02-27T08:57:12.993Z,31.73
2019-02-27T08:58:32.073Z,29.65
2019-02-27T08:59:09.304Z,30.08
2019-02-27T08:59:47.024Z,31.15
2019-02-27T09:00:24.880Z,33.48
2019-02-27T09:01:02.300Z,31.57
2019-02-27T09:01:42.862Z,32.48
2019-02-27T09:02:20.784Z,33.48
2019-02-27T09:03:02.355Z,34.58
2019-02-27T09:03:37.118Z,31.95
2019-02-27T09:04:14.873Z,32.65